Sealady — 9HA4184 — position and weather

sailwx.info

Track history (hours):
 
Tides and Currents Weather Stations Pressure Air Temp Water Temp Dewpoint Dewpoint Depression Visibility Wind Speed Wind Dir Waves Ship Positions

Sealady

Last reported at 2018-Feb-18 08:40 UTC. Time now 2018-Feb-25 12:01 UTC.
Position N 27°43' W 015°18'.

Length 200 m; draft 9.7 m.

Type: Cargo ship. MMSI: 249284000.

Date/timePositionNaut miles runAvg speedWind from/ knotsBaromVisibWave heightAir tempDewpointWater temp
2018-Feb-18 08:40N 27°43' W 015°18'213.9
2018-Feb-18 08:30N 27°45' W 015°17'713.9
2018-Feb-18 08:00N 27°51' W 015°14'714.0
2018-Feb-18 07:30N 27°58' W 015°15'613.0
2018-Feb-18 07:00N 28°03' W 015°19'510.8
2018-Feb-18 06:30N 28°07' W 015°24'1 0.8
2018-Feb-18 05:47N 28°07' W 015°24'0 0.0
2018-Feb-18 05:29N 28°07' W 015°24'0 0.0
2018-Feb-18 04:59N 28°07' W 015°24'0 0.0
2018-Feb-18 04:29N 28°07' W 015°24'0 0.0
2018-Feb-18 03:50N 28°07' W 015°24'0 0.0
2018-Feb-18 03:17N 28°07' W 015°24'0 0.0
2018-Feb-18 02:53N 28°07' W 015°24'0 0.0
2018-Feb-18 02:23N 28°07' W 015°24'0 0.0
2018-Feb-18 01:53N 28°07' W 015°24'0 0.1
2018-Feb-18 01:23N 28°07' W 015°24'0 0.0
2018-Feb-18 00:53N 28°07' W 015°24'0 0.1
2018-Feb-18 00:20N 28°07' W 015°24'0 0.9
2018-Feb-18 00:00N 28°07' W 015°24'1 2.3
2018-Feb-17 23:30N 28°07' W 015°23'1 1.2
2018-Feb-17 23:00N 28°07' W 015°22'1 2.7
2018-Feb-17 22:30N 28°06' W 015°21'2 4.7
2018-Feb-17 21:58N 28°05' W 015°18'4 8.3
2018-Feb-17 21:30N 28°08' W 015°16'510.2
2018-Feb-17 21:00N 28°13' W 015°13'5 9.1
2018-Feb-17 20:30N 28°17' W 015°11'611.2
2018-Feb-17 20:00N 28°22' W 015°08'713.6
2018-Feb-17 19:30N 28°28' W 015°04'713.4
2018-Feb-17 19:00N 28°34' W 015°01'713.7
2018-Feb-17 18:30N 28°40' W 014°57'60013.0
2018-Feb-15 20:22N 37°35' W 009°32'513.5
2018-Feb-15 20:01N 37°39' W 009°30'713.6
2018-Feb-15 19:30N 37°45' W 009°25'713.3
2018-Feb-15 19:01N 37°51' W 009°21'713.0
2018-Feb-15 18:30N 37°57' W 009°18'612.5
2018-Feb-15 18:00N 38°03' W 009°14'612.6
2018-Feb-15 17:31N 38°08' W 009°11'612.9
2018-Feb-15 17:00N 38°14' W 009°07'713.0
2018-Feb-15 16:30N 38°20' W 009°03'612.0
2018-Feb-15 16:01N 38°25' W 008°59'5 9.8
2018-Feb-15 15:31N 38°29' W 008°56'4 8.6
2018-Feb-15 15:01N 38°28' W 008°51'3 5.4
2018-Feb-15 14:30N 38°28' W 008°47'0 0.5
2018-Feb-15 14:00N 38°28' W 008°47'0 0.0
2018-Feb-15 13:09N 38°28' W 008°47'0 0.0
2018-Feb-15 04:33N 38°28' W 008°47'0 0.1
2018-Feb-15 04:27N 38°28' W 008°47'0 0.0
2018-Feb-15 02:48N 38°28' W 008°47'0 0.0
2018-Feb-15 02:27N 38°28' W 008°47'0 0.0
2018-Feb-14 10:12N 38°28' W 008°47'0 0.0
2018-Feb-14 09:42N 38°28' W 008°47'0 0.0
2018-Feb-14 09:24N 38°28' W 008°47'0 0.0
2018-Feb-14 07:48N 38°28' W 008°47'0 0.0
2018-Feb-14 06:36N 38°28' W 008°47'0 0.1
2018-Feb-14 06:30N 38°28' W 008°47'0 0.0
2018-Feb-14 06:00N 38°28' W 008°47'0 0.0
2018-Feb-14 05:00N 38°28' W 008°47'0 0.0
2018-Feb-14 04:24N 38°28' W 008°47'0 0.0
2018-Feb-14 03:51N 38°28' W 008°47'0 0.0
2018-Feb-14 03:21N 38°28' W 008°47'0 0.0
2018-Feb-14 03:00N 38°28' W 008°47'0 0.0
2018-Feb-14 02:24N 38°28' W 008°47'0 0.0
2018-Feb-13 11:15N 38°28' W 008°47'0 0.0
2018-Feb-13 10:54N 38°28' W 008°47'0 0.0
2018-Feb-13 10:24N 38°28' W 008°47'0 0.0
2018-Feb-13 10:00N 38°28' W 008°47'0 0.0
2018-Feb-13 09:24N 38°28' W 008°47'0 0.0
2018-Feb-13 08:03N 38°28' W 008°47'0 0.0
2018-Feb-13 07:54N 38°28' W 008°47'0 0.0
2018-Feb-13 07:21N 38°28' W 008°47'0 0.0
2018-Feb-13 07:00N 38°28' W 008°47'0 0.0
2018-Feb-13 06:27N 38°28' W 008°47'0 0.0
2018-Feb-13 05:54N 38°28' W 008°47'0 0.0
2018-Feb-13 05:24N 38°28' W 008°47'0 0.0
2018-Feb-13 04:00N 38°28' W 008°47'0 0.0
2018-Feb-13 03:24N 38°28' W 008°47'0 0.0
2018-Feb-13 02:39N 38°28' W 008°47'0 0.0
2018-Feb-13 02:18N 38°28' W 008°47'0 0.0
2018-Feb-13 02:00N 38°28' W 008°47'0 0.0
2018-Feb-13 00:15N 38°28' W 008°47'0 0.0
2018-Feb-12 23:21N 38°28' W 008°47'0 0.0
2018-Feb-12 16:24N 38°28' W 008°47'0 0.0
2018-Feb-12 15:06N 38°28' W 008°47'0 0.0
2018-Feb-12 14:57N 38°28' W 008°47'0 0.0
2018-Feb-12 09:57N 38°28' W 008°47'0 0.0
2018-Feb-12 08:39N 38°28' W 008°47'0 0.0
2018-Feb-12 08:03N 38°28' W 008°47'0 0.0
2018-Feb-12 07:57N 38°28' W 008°47'0 0.0
2018-Feb-12 05:06N 38°28' W 008°47'0 0.0
2018-Feb-12 04:57N 38°28' W 008°47'0 0.0
2018-Feb-12 04:27N 38°28' W 008°47'0 0.0
2018-Feb-11 20:15N 38°28' W 008°47'0 0.0
2018-Feb-11 12:18N 38°28' W 008°47'0 0.0
2018-Feb-10 23:51N 38°28' W 008°47'0 0.0
2018-Feb-10 23:27N 38°28' W 008°47'0 0.0
2018-Feb-10 22:57N 38°28' W 008°47'0 0.0
2018-Feb-10 22:21N 38°28' W 008°47'0 0.0
2018-Feb-10 20:27N 38°28' W 008°47'0 0.0
2018-Feb-10 19:45N 38°28' W 008°47'0 0.0
2018-Feb-10 18:15N 38°28' W 008°47'0 0.0
2018-Feb-10 12:27N 38°28' W 008°47'0 0.0
2018-Feb-10 09:27N 38°28' W 008°47'0 0.0
2018-Feb-10 08:57N 38°28' W 008°47'0 0.0
2018-Feb-10 07:45N 38°28' W 008°47'0 0.0
2018-Feb-10 07:21N 38°28' W 008°47'0 0.0
2018-Feb-10 06:45N 38°28' W 008°47'0 0.0
2018-Feb-10 06:15N 38°28' W 008°47'0 0.0
2018-Feb-10 05:51N 38°28' W 008°47'0 0.0
2018-Feb-10 05:30N 38°28' W 008°47'0 0.0
2018-Feb-10 04:21N 38°28' W 008°47'0 0.0
2018-Feb-10 03:51N 38°28' W 008°47'0 0.0
2018-Feb-10 03:27N 38°28' W 008°47'0 0.0
2018-Feb-10 02:51N 38°28' W 008°47'0 0.0
2018-Feb-10 02:27N 38°28' W 008°47'0 0.0
2018-Feb-10 01:57N 38°28' W 008°47'0 0.0
2018-Feb-10 01:27N 38°28' W 008°47'0 0.0
2018-Feb-10 00:57N 38°28' W 008°47'0 0.0
2018-Feb-10 00:09N 38°28' W 008°47'0 0.0
2018-Feb-09 23:39N 38°28' W 008°47'0 0.0
2018-Feb-09 23:27N 38°28' W 008°47'0 0.0
2018-Feb-09 22:57N 38°28' W 008°47'0 0.0
2018-Feb-09 21:51N 38°28' W 008°47'3 0.3
2018-Feb-09 11:01N 38°30' W 008°51'0 0.0
2018-Feb-09 09:31N 38°30' W 008°51'0 0.0
2018-Feb-09 06:01N 38°30' W 008°51'0 0.0
2018-Feb-09 03:31N 38°30' W 008°51'  
Track history (hours):
 
Tides and Currents Weather Stations Pressure Air Temp Water Temp Dewpoint Dewpoint Depression Visibility Wind Speed Wind Dir Waves Ship Positions

Sealady

Last reported at 2018-Feb-18 08:40 UTC. Time now 2018-Feb-25 12:01 UTC.
Position N 27°43' W 015°18'.

Length 200 m; draft 9.7 m.

Type: Cargo ship. MMSI: 249284000.

Date/timePositionNaut miles runAvg speedWind from/ knotsBaromVisibWave heightAir tempDewpointWater temp
2018-Feb-18 08:40N 27°43' W 015°18'213.9
2018-Feb-18 08:30N 27°45' W 015°17'713.9
2018-Feb-18 08:00N 27°51' W 015°14'714.0
2018-Feb-18 07:30N 27°58' W 015°15'613.0
2018-Feb-18 07:00N 28°03' W 015°19'510.8
2018-Feb-18 06:30N 28°07' W 015°24'1 0.8
2018-Feb-18 05:47N 28°07' W 015°24'0 0.0
2018-Feb-18 05:29N 28°07' W 015°24'0 0.0
2018-Feb-18 04:59N 28°07' W 015°24'0 0.0
2018-Feb-18 04:29N 28°07' W 015°24'0 0.0
2018-Feb-18 03:50N 28°07' W 015°24'0 0.0
2018-Feb-18 03:17N 28°07' W 015°24'0 0.0
2018-Feb-18 02:53N 28°07' W 015°24'0 0.0
2018-Feb-18 02:23N 28°07' W 015°24'0 0.0
2018-Feb-18 01:53N 28°07' W 015°24'0 0.1
2018-Feb-18 01:23N 28°07' W 015°24'0 0.0
2018-Feb-18 00:53N 28°07' W 015°24'0 0.1
2018-Feb-18 00:20N 28°07' W 015°24'0 0.9
2018-Feb-18 00:00N 28°07' W 015°24'1 2.3
2018-Feb-17 23:30N 28°07' W 015°23'1 1.2
2018-Feb-17 23:00N 28°07' W 015°22'1 2.7
2018-Feb-17 22:30N 28°06' W 015°21'2 4.7
2018-Feb-17 21:58N 28°05' W 015°18'4 8.3
2018-Feb-17 21:30N 28°08' W 015°16'510.2
2018-Feb-17 21:00N 28°13' W 015°13'5 9.1
2018-Feb-17 20:30N 28°17' W 015°11'611.2
2018-Feb-17 20:00N 28°22' W 015°08'713.6
2018-Feb-17 19:30N 28°28' W 015°04'713.4
2018-Feb-17 19:00N 28°34' W 015°01'713.7
2018-Feb-17 18:30N 28°40' W 014°57'60013.0
2018-Feb-15 20:22N 37°35' W 009°32'513.5
2018-Feb-15 20:01N 37°39' W 009°30'713.6
2018-Feb-15 19:30N 37°45' W 009°25'713.3
2018-Feb-15 19:01N 37°51' W 009°21'713.0
2018-Feb-15 18:30N 37°57' W 009°18'612.5
2018-Feb-15 18:00N 38°03' W 009°14'612.6
2018-Feb-15 17:31N 38°08' W 009°11'612.9
2018-Feb-15 17:00N 38°14' W 009°07'713.0
2018-Feb-15 16:30N 38°20' W 009°03'612.0
2018-Feb-15 16:01N 38°25' W 008°59'5 9.8
2018-Feb-15 15:31N 38°29' W 008°56'4 8.6
2018-Feb-15 15:01N 38°28' W 008°51'3 5.4
2018-Feb-15 14:30N 38°28' W 008°47'0 0.5
2018-Feb-15 14:00N 38°28' W 008°47'0 0.0
2018-Feb-15 13:09N 38°28' W 008°47'0 0.0
2018-Feb-15 04:33N 38°28' W 008°47'0 0.1
2018-Feb-15 04:27N 38°28' W 008°47'0 0.0
2018-Feb-15 02:48N 38°28' W 008°47'0 0.0
2018-Feb-15 02:27N 38°28' W 008°47'0 0.0
2018-Feb-14 10:12N 38°28' W 008°47'0 0.0
2018-Feb-14 09:42N 38°28' W 008°47'0 0.0
2018-Feb-14 09:24N 38°28' W 008°47'0 0.0
2018-Feb-14 07:48N 38°28' W 008°47'0 0.0
2018-Feb-14 06:36N 38°28' W 008°47'0 0.1
2018-Feb-14 06:30N 38°28' W 008°47'0 0.0
2018-Feb-14 06:00N 38°28' W 008°47'0 0.0
2018-Feb-14 05:00N 38°28' W 008°47'0 0.0
2018-Feb-14 04:24N 38°28' W 008°47'0 0.0
2018-Feb-14 03:51N 38°28' W 008°47'0 0.0
2018-Feb-14 03:21N 38°28' W 008°47'0 0.0
2018-Feb-14 03:00N 38°28' W 008°47'0 0.0
2018-Feb-14 02:24N 38°28' W 008°47'0 0.0
2018-Feb-13 11:15N 38°28' W 008°47'0 0.0
2018-Feb-13 10:54N 38°28' W 008°47'0 0.0
2018-Feb-13 10:24N 38°28' W 008°47'0 0.0
2018-Feb-13 10:00N 38°28' W 008°47'0 0.0
2018-Feb-13 09:24N 38°28' W 008°47'0 0.0
2018-Feb-13 08:03N 38°28' W 008°47'0 0.0
2018-Feb-13 07:54N 38°28' W 008°47'0 0.0
2018-Feb-13 07:21N 38°28' W 008°47'0 0.0
2018-Feb-13 07:00N 38°28' W 008°47'0 0.0
2018-Feb-13 06:27N 38°28' W 008°47'0 0.0
2018-Feb-13 05:54N 38°28' W 008°47'0 0.0
2018-Feb-13 05:24N 38°28' W 008°47'0 0.0
2018-Feb-13 04:00N 38°28' W 008°47'0 0.0
2018-Feb-13 03:24N 38°28' W 008°47'0 0.0
2018-Feb-13 02:39N 38°28' W 008°47'0 0.0
2018-Feb-13 02:18N 38°28' W 008°47'0 0.0
2018-Feb-13 02:00N 38°28' W 008°47'0 0.0
2018-Feb-13 00:15N 38°28' W 008°47'0 0.0
2018-Feb-12 23:21N 38°28' W 008°47'0 0.0
2018-Feb-12 16:24N 38°28' W 008°47'0 0.0
2018-Feb-12 15:06N 38°28' W 008°47'0 0.0
2018-Feb-12 14:57N 38°28' W 008°47'0 0.0
2018-Feb-12 09:57N 38°28' W 008°47'0 0.0
2018-Feb-12 08:39N 38°28' W 008°47'0 0.0
2018-Feb-12 08:03N 38°28' W 008°47'0 0.0
2018-Feb-12 07:57N 38°28' W 008°47'0 0.0
2018-Feb-12 05:06N 38°28' W 008°47'0 0.0
2018-Feb-12 04:57N 38°28' W 008°47'0 0.0
2018-Feb-12 04:27N 38°28' W 008°47'0 0.0
2018-Feb-11 20:15N 38°28' W 008°47'0 0.0
2018-Feb-11 12:18N 38°28' W 008°47'0 0.0
2018-Feb-10 23:51N 38°28' W 008°47'0 0.0
2018-Feb-10 23:27N 38°28' W 008°47'0 0.0
2018-Feb-10 22:57N 38°28' W 008°47'0 0.0
2018-Feb-10 22:21N 38°28' W 008°47'0 0.0
2018-Feb-10 20:27N 38°28' W 008°47'0 0.0
2018-Feb-10 19:45N 38°28' W 008°47'0 0.0
2018-Feb-10 18:15N 38°28' W 008°47'0 0.0
2018-Feb-10 12:27N 38°28' W 008°47'0 0.0
2018-Feb-10 09:27N 38°28' W 008°47'0 0.0
2018-Feb-10 08:57N 38°28' W 008°47'0 0.0
2018-Feb-10 07:45N 38°28' W 008°47'0 0.0
2018-Feb-10 07:21N 38°28' W 008°47'0 0.0
2018-Feb-10 06:45N 38°28' W 008°47'0 0.0
2018-Feb-10 06:15N 38°28' W 008°47'0 0.0
2018-Feb-10 05:51N 38°28' W 008°47'0 0.0
2018-Feb-10 05:30N 38°28' W 008°47'0 0.0
2018-Feb-10 04:21N 38°28' W 008°47'0 0.0
2018-Feb-10 03:51N 38°28' W 008°47'0 0.0
2018-Feb-10 03:27N 38°28' W 008°47'0 0.0
2018-Feb-10 02:51N 38°28' W 008°47'0 0.0
2018-Feb-10 02:27N 38°28' W 008°47'0 0.0
2018-Feb-10 01:57N 38°28' W 008°47'0 0.0
2018-Feb-10 01:27N 38°28' W 008°47'0 0.0
2018-Feb-10 00:57N 38°28' W 008°47'0 0.0
2018-Feb-10 00:09N 38°28' W 008°47'0 0.0
2018-Feb-09 23:39N 38°28' W 008°47'0 0.0
2018-Feb-09 23:27N 38°28' W 008°47'0 0.0
2018-Feb-09 22:57N 38°28' W 008°47'0 0.0
2018-Feb-09 21:51N 38°28' W 008°47'3 0.3
2018-Feb-09 11:01N 38°30' W 008°51'0 0.0
2018-Feb-09 09:31N 38°30' W 008°51'0 0.0
2018-Feb-09 06:01N 38°30' W 008°51'0 0.0
2018-Feb-09 03:31N 38°30' W 008°51'  

Dump ship's entire track history